createdAt,value
2023-02-12T00:00:26.836Z,33.13
2023-02-12T00:02:55.217Z,31.77
2023-02-12T00:05:23.870Z,30.58
2023-02-12T00:07:54.893Z,28.95
2023-02-12T00:10:23.584Z,31.73
2023-02-12T00:12:51.975Z,36.05
2023-02-12T00:15:20.492Z,31.75
2023-02-12T00:17:48.949Z,27.67
2023-02-12T00:20:17.496Z,30.50
2023-02-12T00:22:45.840Z,32.47
2023-02-12T00:25:39.732Z,27.80
2023-02-12T00:28:09.579Z,29.35
2023-02-12T00:30:38.261Z,28.80
2023-02-12T00:33:06.590Z,29.42
2023-02-12T00:35:34.947Z,32.78
2023-02-12T00:38:03.361Z,30.35
2023-02-12T00:40:32.116Z,25.83
2023-02-12T00:43:00.459Z,30.13
2023-02-12T00:45:30.487Z,30.17
2023-02-12T00:47:59.777Z,31.77
2023-02-12T00:50:30.757Z,30.30
2023-02-12T00:53:03.796Z,30.33
2023-02-12T00:55:33.154Z,32.13
2023-02-12T00:58:01.807Z,30.77
2023-02-12T01:00:46.407Z,29.45
2023-02-12T01:03:26.674Z,35.40
2023-02-12T01:05:55.343Z,30.95
2023-02-12T01:08:23.956Z,31.45
2023-02-12T01:10:57.066Z,32.72
2023-02-12T01:13:25.846Z,36.80
2023-02-12T01:16:04.541Z,29.85
2023-02-12T01:18:32.934Z,33.08
2023-02-12T01:21:01.338Z,32.22
2023-02-12T01:23:30.116Z,33.40
2023-02-12T01:26:00.643Z,32.20
2023-02-12T01:28:31.148Z,29.33
2023-02-12T01:31:01.594Z,30.65
2023-02-12T01:33:31.396Z,32.83
2023-02-12T01:35:59.744Z,32.03
2023-02-12T01:38:28.008Z,35.10
2023-02-12T01:41:03.236Z,34.70
2023-02-12T01:43:31.875Z,31.52
2023-02-12T01:46:01.424Z,33.22
2023-02-12T01:48:30.792Z,31.80
2023-02-12T01:51:02.331Z,31.58
2023-02-12T01:53:31.578Z,32.05
2023-02-12T01:56:01.903Z,31.10
2023-02-12T01:58:32.088Z,32.83
2023-02-12T02:01:01.886Z,30.40
2023-02-12T02:03:32.922Z,30.38
2023-02-12T02:06:05.350Z,32.63
2023-02-12T02:08:34.451Z,30.27
2023-02-12T02:11:23.677Z,30.80
2023-02-12T02:14:10.157Z,35.00
2023-02-12T02:16:38.759Z,37.42
2023-02-12T02:19:10.769Z,40.50
2023-02-12T02:21:50.226Z,41.10
2023-02-12T02:24:28.573Z,41.42
2023-02-12T02:27:09.167Z,44.97
2023-02-12T02:29:47.274Z,40.00
2023-02-12T02:32:18.852Z,34.20
2023-02-12T02:34:51.829Z,35.33
2023-02-12T02:37:21.091Z,33.20
2023-02-12T02:39:52.493Z,37.97
2023-02-12T02:42:25.609Z,32.28
2023-02-12T02:44:54.940Z,33.83
2023-02-12T02:47:27.815Z,33.63
2023-02-12T02:49:58.125Z,33.08
2023-02-12T02:52:30.488Z,34.35
2023-02-12T02:55:02.961Z,46.70
2023-02-12T02:57:32.114Z,42.75
2023-02-12T03:00:04.079Z,34.92
2023-02-12T03:02:36.531Z,33.08
2023-02-12T03:05:06.175Z,35.90
2023-02-12T03:07:36.060Z,33.75
2023-02-12T03:10:06.217Z,31.65
2023-02-12T03:12:36.224Z,35.95
2023-02-12T03:15:06.659Z,37.03
2023-02-12T03:17:37.447Z,35.17
2023-02-12T03:20:10.183Z,33.13
2023-02-12T03:22:41.226Z,37.22
2023-02-12T03:25:14.693Z,32.88
2023-02-12T03:27:44.081Z,37.20
2023-02-12T03:30:12.971Z,35.05
2023-02-12T03:32:46.702Z,30.92
2023-02-12T03:35:18.098Z,34.47
2023-02-12T03:37:52.005Z,29.40
2023-02-12T03:40:22.385Z,33.25
2023-02-12T03:42:55.854Z,30.38
2023-02-12T03:45:29.699Z,28.80
2023-02-12T03:48:03.368Z,34.83
2023-02-12T03:50:36.811Z,37.22
2023-02-12T03:53:05.823Z,32.92
2023-02-12T03:55:34.781Z,30.75
2023-02-12T03:58:04.461Z,28.48
2023-02-12T04:00:32.807Z,31.00
2023-02-12T04:03:03.099Z,30.75
2023-02-12T04:05:31.443Z,33.97
2023-02-12T04:08:00.686Z,30.95
2023-02-12T04:10:31.455Z,32.20
2023-02-12T04:13:06.688Z,29.13
2023-02-12T04:15:42.695Z,33.13
2023-02-12T04:18:16.095Z,31.23
2023-02-12T04:20:52.289Z,34.55
2023-02-12T04:23:25.293Z,33.20
2023-02-12T04:25:57.587Z,31.95
2023-02-12T04:28:30.235Z,30.05
2023-02-12T04:31:01.401Z,34.03
2023-02-12T04:33:36.518Z,35.40
2023-02-12T04:36:08.653Z,37.15
2023-02-12T04:38:39.095Z,32.08
2023-02-12T04:41:08.103Z,32.55
2023-02-12T04:43:37.177Z,32.75
2023-02-12T04:46:06.064Z,32.15
2023-02-12T04:48:36.175Z,33.20
2023-02-12T04:51:04.824Z,34.03
2023-02-12T04:53:33.179Z,35.28
2023-02-12T04:56:01.475Z,34.63
2023-02-12T04:58:29.703Z,34.50
2023-02-12T05:01:00.490Z,38.80
2023-02-12T05:03:28.943Z,32.65
2023-02-12T05:05:58.584Z,31.83
2023-02-12T05:08:26.847Z,38.50
2023-02-12T05:10:55.144Z,33.17
2023-02-12T05:13:23.475Z,33.60
2023-02-12T05:15:51.795Z,35.30
2023-02-12T05:18:20.081Z,33.63
2023-02-12T05:20:56.412Z,32.53
2023-02-12T05:23:27.467Z,32.33
2023-02-12T05:25:56.199Z,35.47
2023-02-12T05:28:24.655Z,30.10
2023-02-12T05:30:53.110Z,35.08
2023-02-12T05:33:21.406Z,40.42
2023-02-12T05:35:49.875Z,32.88
2023-02-12T05:38:18.274Z,35.63
2023-02-12T05:40:47.921Z,36.03
2023-02-12T05:43:16.497Z,37.85
2023-02-12T05:45:44.981Z,40.80
2023-02-12T05:48:13.352Z,38.10
2023-02-12T05:50:41.662Z,37.60
2023-02-12T05:53:10.004Z,34.22
2023-02-12T05:55:38.458Z,38.92
2023-02-12T05:58:08.207Z,41.58
2023-02-12T06:00:36.590Z,37.97
2023-02-12T06:03:04.922Z,37.95
2023-02-12T06:05:33.324Z,38.03
2023-02-12T06:08:01.667Z,38.97
2023-02-12T06:10:30.037Z,35.95
2023-02-12T06:12:58.371Z,32.45
2023-02-12T06:15:28.230Z,34.85
2023-02-12T06:17:56.508Z,35.53
2023-02-12T06:20:30.052Z,35.50
2023-02-12T06:22:58.592Z,36.85
2023-02-12T06:25:27.014Z,38.60
2023-02-12T06:27:55.318Z,38.60
2023-02-12T06:30:23.657Z,36.83
2023-02-12T06:32:53.353Z,36.08
2023-02-12T06:35:21.663Z,39.63
2023-02-12T06:37:50.029Z,40.22
2023-02-12T06:40:18.750Z,39.78
2023-02-12T06:42:47.140Z,36.28
2023-02-12T06:45:15.525Z,33.72
2023-02-12T06:47:43.844Z,37.42
2023-02-12T06:50:13.698Z,36.00
2023-02-12T06:52:42.080Z,36.03
2023-02-12T06:55:10.436Z,36.90
2023-02-12T06:57:38.760Z,38.88
2023-02-12T07:00:07.726Z,41.17
2023-02-12T07:02:38.847Z,43.38
2023-02-12T07:05:07.663Z,42.05
2023-02-12T07:07:37.317Z,47.83
2023-02-12T07:10:05.729Z,43.80
2023-02-12T07:12:35.025Z,47.63
2023-02-12T07:15:03.698Z,46.95
2023-02-12T07:17:32.468Z,49.47
2023-02-12T07:20:00.883Z,48.20
2023-02-12T07:22:29.179Z,45.92
2023-02-12T07:24:58.842Z,51.05
2023-02-12T07:27:27.134Z,50.35
2023-02-12T07:29:55.477Z,47.53
2023-02-12T07:32:23.824Z,46.55
2023-02-12T07:34:52.180Z,50.55
2023-02-12T07:37:22.634Z,49.00
2023-02-12T07:39:51.271Z,49.35
2023-02-12T07:42:21.233Z,47.47
2023-02-12T07:44:51.307Z,46.83
2023-02-12T07:47:19.698Z,46.33
2023-02-12T07:49:48.032Z,48.88
2023-02-12T07:52:16.413Z,45.95
2023-02-12T07:54:44.992Z,45.72
2023-02-12T07:57:13.494Z,46.58
2023-02-12T07:59:43.211Z,42.38
2023-02-12T08:02:11.733Z,46.53
2023-02-12T08:04:40.242Z,42.35
2023-02-12T08:07:08.665Z,41.15
2023-02-12T08:09:37.045Z,44.22
2023-02-12T08:12:05.504Z,49.22
2023-02-12T08:14:33.858Z,47.13
2023-02-12T08:17:03.501Z,48.40
2023-02-12T08:19:31.788Z,50.42
2023-02-12T08:22:02.141Z,45.40
2023-02-12T08:24:31.083Z,43.03
2023-02-12T08:26:59.778Z,47.35
2023-02-12T08:29:29.261Z,46.80
2023-02-12T08:31:58.575Z,43.20
2023-02-12T08:34:29.016Z,45.08
2023-02-12T08:36:58.031Z,45.22
2023-02-12T08:39:27.502Z,43.05
2023-02-12T08:41:56.125Z,42.13
2023-02-12T08:44:24.531Z,50.00
2023-02-12T08:46:55.440Z,42.72
2023-02-12T08:49:24.343Z,43.90
2023-02-12T08:51:54.875Z,44.78
2023-02-12T08:54:24.082Z,48.88
2023-02-12T08:56:52.424Z,46.75
2023-02-12T08:59:20.854Z,50.70
2023-02-12T09:01:51.693Z,41.65
2023-02-12T09:04:21.503Z,47.53
2023-02-12T09:06:50.325Z,46.13
2023-02-12T09:09:20.556Z,54.75
2023-02-12T09:11:49.354Z,49.03
2023-02-12T09:14:23.564Z,54.65
2023-02-12T09:16:52.908Z,46.13
2023-02-12T09:19:21.465Z,49.95
2023-02-12T09:21:55.262Z,45.72
2023-02-12T09:24:26.079Z,46.55
2023-02-12T09:26:54.636Z,56.53
2023-02-12T09:29:22.940Z,51.78
2023-02-12T09:31:51.356Z,54.15
2023-02-12T09:34:19.881Z,51.72
2023-02-12T09:36:48.321Z,50.15
2023-02-12T09:39:16.664Z,55.53
2023-02-12T09:41:54.115Z,56.60
2023-02-12T09:44:24.448Z,55.78
2023-02-12T09:46:55.300Z,53.78
2023-02-12T09:49:28.261Z,50.47
2023-02-12T09:51:56.948Z,53.00
2023-02-12T09:54:27.576Z,54.08
2023-02-12T09:56:58.617Z,55.60
2023-02-12T09:59:31.810Z,56.42
2023-02-12T10:02:00.325Z,57.45
2023-02-12T10:04:29.772Z,55.67
2023-02-12T10:07:03.179Z,58.83
2023-02-12T10:09:39.462Z,53.60
2023-02-12T10:12:14.444Z,56.08
2023-02-12T10:14:55.180Z,57.50
2023-02-12T10:17:28.738Z,61.10
2023-02-12T10:20:11.692Z,52.22
2023-02-12T10:22:56.156Z,62.05
2023-02-12T10:25:27.786Z,56.60
2023-02-12T10:27:58.328Z,55.08
2023-02-12T10:30:28.713Z,57.55
2023-02-12T10:33:00.519Z,63.58
2023-02-12T10:35:28.852Z,57.45
2023-02-12T10:37:59.368Z,66.07
2023-02-12T10:40:29.949Z,61.17
2023-02-12T10:43:00.818Z,56.00
2023-02-12T10:45:31.776Z,53.55
2023-02-12T10:48:09.718Z,48.83
2023-02-12T10:50:46.516Z,58.03
2023-02-12T10:53:18.561Z,57.67
2023-02-12T10:55:46.939Z,53.15
2023-02-12T10:58:20.924Z,59.05
2023-02-12T11:00:57.341Z,40.25
2023-02-12T11:03:29.267Z,48.65
2023-02-12T11:05:58.317Z,49.28
2023-02-12T11:08:32.339Z,53.45
2023-02-12T11:11:10.226Z,52.03
2023-02-12T11:13:40.795Z,49.95
2023-02-12T11:16:09.341Z,53.90
2023-02-12T11:18:38.295Z,50.17
2023-02-12T11:21:07.900Z,57.78
2023-02-12T11:23:37.794Z,49.55
2023-02-12T11:26:07.103Z,48.42
2023-02-12T11:28:36.896Z,48.75
2023-02-12T11:31:22.260Z,48.28
2023-02-12T11:34:07.579Z,50.20
2023-02-12T11:36:37.565Z,49.85
2023-02-12T11:39:07.646Z,51.95
2023-02-12T11:41:37.295Z,50.30
2023-02-12T11:44:10.824Z,55.15
2023-02-12T11:46:40.585Z,50.53
2023-02-12T11:49:09.977Z,52.17
2023-02-12T11:51:39.232Z,47.60
2023-02-12T11:54:07.548Z,47.80
2023-02-12T11:56:42.926Z,54.35
2023-02-12T11:59:14.121Z,45.65
2023-02-12T12:01:44.122Z,46.72
2023-02-12T12:04:14.428Z,45.17
2023-02-12T12:06:46.078Z,45.35
2023-02-12T12:09:17.736Z,43.80
2023-02-12T12:11:49.277Z,44.42
2023-02-12T12:14:20.079Z,45.45
2023-02-12T12:17:10.725Z,44.20
2023-02-12T12:19:55.750Z,40.55
2023-02-12T12:22:37.277Z,42.35
2023-02-12T12:25:08.597Z,45.53
2023-02-12T12:27:58.023Z,44.88
2023-02-12T12:30:31.116Z,45.72
2023-02-12T12:33:03.139Z,41.20
2023-02-12T12:35:38.101Z,43.63
2023-02-12T12:38:09.817Z,44.78
2023-02-12T12:40:44.527Z,45.45
2023-02-12T12:43:20.761Z,44.35
2023-02-12T12:45:56.534Z,40.22
2023-02-12T12:48:32.710Z,43.13
2023-02-12T12:51:09.708Z,44.25
2023-02-12T12:53:44.438Z,43.55
2023-02-12T12:56:20.328Z,42.00
2023-02-12T12:58:54.003Z,41.22
2023-02-12T13:01:40.703Z,44.42
2023-02-12T13:04:22.951Z,41.75
2023-02-12T13:06:56.534Z,36.47
2023-02-12T13:09:39.125Z,37.90
2023-02-12T13:12:20.641Z,38.50
2023-02-12T13:14:50.522Z,35.90
2023-02-12T13:17:22.805Z,41.78
2023-02-12T13:20:00.314Z,40.40
2023-02-12T13:22:31.401Z,41.47
2023-02-12T13:25:03.091Z,38.35
2023-02-12T13:27:34.469Z,37.28
2023-02-12T13:30:05.815Z,34.75
2023-02-12T13:32:36.966Z,34.08
2023-02-12T13:35:09.436Z,33.78
2023-02-12T13:41:28.173Z,30.08
2023-02-12T13:44:03.832Z,30.25
2023-02-12T13:46:35.036Z,33.35
2023-02-12T13:49:08.374Z,30.85
2023-02-12T13:51:43.220Z,29.73
2023-02-12T13:54:20.763Z,31.75
2023-02-12T13:56:51.573Z,28.92
2023-02-12T13:59:38.736Z,30.60
2023-02-12T14:02:16.930Z,30.15
2023-02-12T14:04:47.557Z,26.17
2023-02-12T14:07:18.247Z,29.67
2023-02-12T14:10:06.634Z,23.10
2023-02-12T14:12:38.060Z,23.55
2023-02-12T14:15:07.626Z,22.73
2023-02-12T14:17:43.647Z,23.40
2023-02-12T14:20:28.837Z,23.50
2023-02-12T14:23:03.033Z,26.92
2023-02-12T14:25:34.179Z,24.02
2023-02-12T14:28:08.036Z,25.92
2023-02-12T14:30:39.188Z,22.38
2023-02-12T14:33:17.583Z,21.98
2023-02-12T14:35:46.362Z,21.65
2023-02-12T14:38:47.522Z,18.00
2023-02-12T14:41:37.350Z,22.17
2023-02-12T14:44:26.673Z,23.08
2023-02-12T14:46:55.816Z,21.88
2023-02-12T14:49:26.626Z,24.58
2023-02-12T14:51:56.996Z,22.23
2023-02-12T14:54:29.427Z,24.08
2023-02-12T14:57:01.401Z,24.75
2023-02-12T14:59:32.458Z,20.60
2023-02-12T15:02:05.930Z,23.05
2023-02-12T15:04:37.395Z,20.27
2023-02-12T15:07:08.931Z,22.15
2023-02-12T15:09:39.002Z,22.63
2023-02-12T15:12:12.591Z,21.30
2023-02-12T15:14:43.695Z,20.95
2023-02-12T15:17:14.419Z,23.90
2023-02-12T15:19:45.553Z,24.25
2023-02-12T15:22:21.611Z,24.38
2023-02-12T15:24:50.326Z,23.65
2023-02-12T15:27:20.753Z,24.08
2023-02-12T15:29:50.445Z,20.50
2023-02-12T15:32:20.883Z,23.35
2023-02-12T15:34:50.865Z,22.95
2023-02-12T15:37:21.816Z,23.83
2023-02-12T15:39:50.250Z,20.05
2023-02-12T15:42:26.980Z,25.48
2023-02-12T15:45:03.264Z,37.05
2023-02-12T15:47:31.872Z,28.02
2023-02-12T15:50:01.323Z,22.25
2023-02-12T15:52:34.603Z,21.17
2023-02-12T15:55:04.882Z,19.55
2023-02-12T15:57:35.230Z,20.63
2023-02-12T16:00:06.028Z,19.67
2023-02-12T16:02:43.029Z,23.75
2023-02-12T16:05:15.808Z,21.52
2023-02-12T16:07:45.894Z,20.38
2023-02-12T16:10:16.468Z,20.10
2023-02-12T16:12:46.445Z,24.20
2023-02-12T16:15:28.396Z,20.38
2023-02-12T16:17:58.303Z,24.27
2023-02-12T16:20:27.471Z,19.75
2023-02-12T16:22:56.588Z,25.23
2023-02-12T16:25:26.412Z,23.20
2023-02-12T16:28:03.969Z,25.35
2023-02-12T16:30:33.274Z,23.45
2023-02-12T16:33:01.922Z,25.83
2023-02-12T16:35:32.442Z,25.17
2023-02-12T16:38:03.004Z,28.40
2023-02-12T16:40:33.034Z,25.67
2023-02-12T16:43:23.623Z,25.98
2023-02-12T16:45:52.569Z,30.83
2023-02-12T16:48:25.257Z,26.67
2023-02-12T16:50:55.644Z,23.40
2023-02-12T16:53:26.370Z,28.13
2023-02-12T16:55:55.415Z,27.20
2023-02-12T16:58:26.207Z,25.35
2023-02-12T17:00:54.766Z,24.42
2023-02-12T17:03:26.911Z,20.30
2023-02-12T17:05:57.365Z,23.40
2023-02-12T17:08:26.177Z,24.05
2023-02-12T17:10:54.519Z,22.85
2023-02-12T17:13:22.845Z,23.10
2023-02-12T17:15:55.515Z,21.92
2023-02-12T17:18:24.328Z,27.30
2023-02-12T17:20:54.875Z,24.83
2023-02-12T17:23:23.321Z,23.83
2023-02-12T17:25:51.608Z,28.40
2023-02-12T17:28:20.876Z,21.48
2023-02-12T17:30:49.228Z,22.02
2023-02-12T17:33:18.974Z,23.20
2023-02-12T17:35:47.606Z,25.63
2023-02-12T17:38:16.030Z,22.85
2023-02-12T17:40:44.360Z,22.58
2023-02-12T17:43:12.695Z,21.20
2023-02-12T17:45:44.631Z,22.65
2023-02-12T17:48:13.452Z,22.77
2023-02-12T17:50:43.417Z,22.77
2023-02-12T17:53:12.942Z,22.45
2023-02-12T17:55:41.648Z,22.05
2023-02-12T17:58:09.942Z,20.48
2023-02-12T18:00:38.928Z,20.77
2023-02-12T18:03:07.867Z,21.33
2023-02-12T18:05:45.690Z,19.67
2023-02-12T18:08:15.329Z,18.45
2023-02-12T18:10:48.633Z,17.98
2023-02-12T18:13:17.763Z,17.58
2023-02-12T18:15:46.081Z,15.30
2023-02-12T18:18:16.623Z,15.00
2023-02-12T18:20:45.799Z,17.50
2023-02-12T18:23:15.457Z,17.02
2023-02-12T18:25:44.241Z,17.38
2023-02-12T18:28:12.889Z,15.65
2023-02-12T18:30:43.104Z,19.20
2023-02-12T18:33:11.708Z,16.55
2023-02-12T18:35:41.659Z,15.30
2023-02-12T18:38:10.436Z,17.77
2023-02-12T18:40:42.400Z,13.05
2023-02-12T18:43:10.677Z,13.07
2023-02-12T18:45:40.490Z,11.55
2023-02-12T18:48:09.416Z,12.98
2023-02-12T18:50:38.350Z,10.18
2023-02-12T18:53:06.670Z,13.93
2023-02-12T18:55:34.956Z,11.93
2023-02-12T18:58:04.569Z,12.98
2023-02-12T19:00:32.930Z,11.95
2023-02-12T19:03:01.280Z,12.73
2023-02-12T19:05:29.586Z,12.02
2023-02-12T19:07:57.857Z,12.27
2023-02-12T19:10:26.143Z,13.80
2023-02-12T19:12:54.668Z,11.15
2023-02-12T19:15:24.443Z,12.63
2023-02-12T19:17:52.707Z,12.13
2023-02-12T19:20:21.031Z,11.95
2023-02-12T19:22:50.084Z,12.90
2023-02-12T19:25:18.439Z,13.95
2023-02-12T19:27:46.772Z,14.32
2023-02-12T19:30:15.330Z,11.52
2023-02-12T19:32:44.987Z,12.88
2023-02-12T19:35:13.330Z,12.77
2023-02-12T19:37:41.600Z,13.13
2023-02-12T19:40:10.245Z,12.93
2023-02-12T19:42:38.580Z,14.13
2023-02-12T19:45:07.237Z,14.07
2023-02-12T19:47:35.508Z,12.57
2023-02-12T19:50:05.189Z,14.63
2023-02-12T19:52:33.575Z,15.52
2023-02-12T19:55:01.866Z,16.27
2023-02-12T19:57:30.516Z,14.73
2023-02-12T19:59:58.904Z,15.70
2023-02-12T20:02:27.203Z,14.23
2023-02-12T20:04:55.508Z,14.93
2023-02-12T20:07:25.159Z,13.80
2023-02-12T20:09:53.469Z,14.00
2023-02-12T20:12:21.735Z,14.30
2023-02-12T20:14:50.139Z,12.63
2023-02-12T20:17:20.063Z,15.55
2023-02-12T20:19:48.343Z,14.45
2023-02-12T20:22:16.651Z,12.98
2023-02-12T20:24:46.287Z,12.20
2023-02-12T20:27:14.578Z,14.02
2023-02-12T20:29:42.889Z,15.55
2023-02-12T20:32:12.386Z,13.88
2023-02-12T20:34:50.436Z,15.60
2023-02-12T20:37:19.817Z,15.25
2023-02-12T20:39:49.671Z,18.00
2023-02-12T20:42:18.032Z,16.13
2023-02-12T20:44:46.315Z,15.00
2023-02-12T20:47:14.650Z,14.85
2023-02-12T20:49:42.947Z,15.73
2023-02-12T20:52:11.390Z,15.73
2023-02-12T20:54:39.679Z,16.02
2023-02-12T20:57:09.525Z,20.55
2023-02-12T20:59:37.818Z,17.23
2023-02-12T21:02:06.841Z,15.32
2023-02-12T21:04:35.960Z,15.73
2023-02-12T21:07:04.352Z,19.60
2023-02-12T21:09:32.748Z,15.90
2023-02-12T21:12:01.040Z,16.15
2023-02-12T21:14:30.629Z,18.90
2023-02-12T21:16:59.125Z,19.02
2023-02-12T21:19:28.201Z,18.00
2023-02-12T21:21:56.697Z,16.58
2023-02-12T21:24:25.709Z,18.02
2023-02-12T21:26:54.717Z,16.60
2023-02-12T21:29:23.063Z,17.73
2023-02-12T21:31:53.281Z,15.40
2023-02-12T21:34:22.820Z,16.55
2023-02-12T21:36:51.939Z,16.98
2023-02-12T21:39:24.538Z,16.75
2023-02-12T21:41:54.131Z,15.93
2023-02-12T21:44:22.838Z,15.10
2023-02-12T21:46:52.535Z,14.57
2023-02-12T21:49:26.391Z,13.45
2023-02-12T21:51:55.926Z,12.65
2023-02-12T21:54:24.280Z,14.20
2023-02-12T21:56:52.526Z,13.40
2023-02-12T21:59:21.036Z,12.40
2023-02-12T22:01:50.590Z,12.02
2023-02-12T22:04:22.193Z,11.15
2023-02-12T22:06:52.417Z,9.95
2023-02-12T22:09:21.787Z,11.23
2023-02-12T22:11:51.903Z,10.68
2023-02-12T22:14:20.720Z,12.15
2023-02-12T22:16:49.148Z,11.35
2023-02-12T22:19:17.550Z,11.70
2023-02-12T22:21:47.276Z,12.98
2023-02-12T22:24:16.494Z,9.45
2023-02-12T22:26:45.075Z,11.90
2023-02-12T22:29:14.912Z,10.43
2023-02-12T22:31:44.554Z,11.48
2023-02-12T22:34:14.614Z,9.43
2023-02-12T22:36:43.455Z,13.45
2023-02-12T22:39:14.011Z,11.88
2023-02-12T22:41:42.998Z,10.55
2023-02-12T22:44:12.261Z,12.02
2023-02-12T22:46:40.545Z,10.35
2023-02-12T22:49:08.899Z,10.60
2023-02-12T22:51:39.363Z,11.90
2023-02-12T22:54:08.278Z,10.43
2023-02-12T22:56:37.860Z,10.73
2023-02-12T22:59:06.210Z,11.35
2023-02-12T23:01:34.593Z,12.63
2023-02-12T23:04:03.074Z,11.48
2023-02-12T23:06:32.258Z,13.48
2023-02-12T23:09:01.856Z,11.90
2023-02-12T23:11:31.159Z,10.07
2023-02-12T23:14:01.380Z,12.13
2023-02-12T23:16:30.131Z,10.75
2023-02-12T23:18:58.781Z,9.98
2023-02-12T23:21:27.596Z,12.13
2023-02-12T23:23:56.194Z,10.18
2023-02-12T23:26:24.598Z,12.00
2023-02-12T23:28:53.098Z,12.20
2023-02-12T23:31:22.896Z,12.43
2023-02-12T23:33:51.247Z,10.77
2023-02-12T23:36:19.527Z,10.57
2023-02-12T23:38:47.820Z,11.77
2023-02-12T23:41:16.137Z,11.45
2023-02-12T23:43:44.442Z,10.70
2023-02-12T23:46:12.760Z,12.65
2023-02-12T23:48:42.371Z,12.88
2023-02-12T23:51:10.645Z,9.73
2023-02-12T23:53:38.900Z,11.68
2023-02-12T23:56:07.769Z,11.75
2023-02-12T23:58:35.979Z,14.05
